sensor_id;sensor_type;location;lat;lon;timestamp;P1;durP1;ratioP1;P2;durP2;ratioP2
29466;SDS011;60968;37.490;-122.288;2022-08-25T00:02:08;1.90;;;1.20;;
29466;SDS011;60968;37.490;-122.288;2022-08-25T00:05:10;4.00;;;1.87;;
29466;SDS011;60968;37.490;-122.288;2022-08-25T00:08:11;3.77;;;1.87;;
29466;SDS011;60968;37.490;-122.288;2022-08-25T00:11:13;8.87;;;2.30;;
29466;SDS011;60968;37.490;-122.288;2022-08-25T00:14:21;2.60;;;1.50;;
29466;SDS011;60968;37.490;-122.288;2022-08-25T00:17:27;2.40;;;1.57;;
29466;SDS011;60968;37.490;-122.288;2022-08-25T00:20:28;1.97;;;1.37;;
29466;SDS011;60968;37.490;-122.288;2022-08-25T00:23:29;2.97;;;1.70;;
29466;SDS011;60968;37.490;-122.288;2022-08-25T00:26:30;2.77;;;1.70;;
29466;SDS011;60968;37.490;-122.288;2022-08-25T00:29:33;2.33;;;1.30;;
29466;SDS011;60968;37.490;-122.288;2022-08-25T00:32:34;2.60;;;1.63;;
29466;SDS011;60968;37.490;-122.288;2022-08-25T00:35:35;2.97;;;1.67;;
29466;SDS011;60968;37.490;-122.288;2022-08-25T00:38:37;2.70;;;1.80;;
29466;SDS011;60968;37.490;-122.288;2022-08-25T00:41:40;7.40;;;2.07;;
29466;SDS011;60968;37.490;-122.288;2022-08-25T00:44:42;2.00;;;1.53;;
29466;SDS011;60968;37.490;-122.288;2022-08-25T00:47:44;3.80;;;1.73;;
29466;SDS011;60968;37.490;-122.288;2022-08-25T00:50:45;3.60;;;1.70;;
29466;SDS011;60968;37.490;-122.288;2022-08-25T00:53:47;3.87;;;1.80;;
29466;SDS011;60968;37.490;-122.288;2022-08-25T00:56:49;2.50;;;1.60;;
29466;SDS011;60968;37.490;-122.288;2022-08-25T00:59:51;2.50;;;1.63;;
29466;SDS011;60968;37.490;-122.288;2022-08-25T01:02:52;3.47;;;2.10;;
29466;SDS011;60968;37.490;-122.288;2022-08-25T01:05:53;2.20;;;1.53;;
29466;SDS011;60968;37.490;-122.288;2022-08-25T01:08:55;7.93;;;2.00;;
29466;SDS011;60968;37.490;-122.288;2022-08-25T01:11:56;2.63;;;1.70;;
29466;SDS011;60968;37.490;-122.288;2022-08-25T01:14:57;2.60;;;1.93;;
29466;SDS011;60968;37.490;-122.288;2022-08-25T01:18:01;2.40;;;1.53;;
29466;SDS011;60968;37.490;-122.288;2022-08-25T01:21:02;2.93;;;1.93;;
29466;SDS011;60968;37.490;-122.288;2022-08-25T01:24:03;3.30;;;1.93;;
29466;SDS011;60968;37.490;-122.288;2022-08-25T01:27:04;2.03;;;1.70;;
29466;SDS011;60968;37.490;-122.288;2022-08-25T01:30:07;5.27;;;1.70;;
29466;SDS011;60968;37.490;-122.288;2022-08-25T01:33:10;3.87;;;1.90;;
29466;SDS011;60968;37.490;-122.288;2022-08-25T01:36:11;2.30;;;1.70;;
29466;SDS011;60968;37.490;-122.288;2022-08-25T01:39:17;2.43;;;1.80;;
29466;SDS011;60968;37.490;-122.288;2022-08-25T01:45:57;2.77;;;1.70;;
29466;SDS011;60968;37.490;-122.288;2022-08-25T01:48:58;3.00;;;1.60;;
29466;SDS011;60968;37.490;-122.288;2022-08-25T01:55:44;2.90;;;1.67;;
29466;SDS011;60968;37.490;-122.288;2022-08-25T01:58:46;3.27;;;1.70;;
29466;SDS011;60968;37.490;-122.288;2022-08-25T02:01:47;4.27;;;1.60;;
29466;SDS011;60968;37.490;-122.288;2022-08-25T02:04:49;2.33;;;1.70;;
29466;SDS011;60968;37.490;-122.288;2022-08-25T02:07:51;2.47;;;1.53;;
29466;SDS011;60968;37.490;-122.288;2022-08-25T02:10:52;3.47;;;1.70;;
29466;SDS011;60968;37.490;-122.288;2022-08-25T02:13:54;3.20;;;1.87;;
29466;SDS011;60968;37.490;-122.288;2022-08-25T02:16:55;4.00;;;1.70;;
29466;SDS011;60968;37.490;-122.288;2022-08-25T02:19:56;5.47;;;1.80;;
29466;SDS011;60968;37.490;-122.288;2022-08-25T02:22:58;1.73;;;1.53;;
29466;SDS011;60968;37.490;-122.288;2022-08-25T02:25:59;2.33;;;1.50;;
29466;SDS011;60968;37.490;-122.288;2022-08-25T02:29:00;3.43;;;1.67;;
29466;SDS011;60968;37.490;-122.288;2022-08-25T02:32:02;2.80;;;1.50;;
29466;SDS011;60968;37.490;-122.288;2022-08-25T02:35:04;4.93;;;2.00;;
29466;SDS011;60968;37.490;-122.288;2022-08-25T02:38:06;1.80;;;1.47;;
29466;SDS011;60968;37.490;-122.288;2022-08-25T02:41:11;3.50;;;1.90;;
29466;SDS011;60968;37.490;-122.288;2022-08-25T02:44:13;2.60;;;1.63;;
29466;SDS011;60968;37.490;-122.288;2022-08-25T02:47:14;3.13;;;1.67;;
29466;SDS011;60968;37.490;-122.288;2022-08-25T02:50:15;3.57;;;2.10;;
29466;SDS011;60968;37.490;-122.288;2022-08-25T02:53:17;3.00;;;1.90;;
29466;SDS011;60968;37.490;-122.288;2022-08-25T02:56:19;3.17;;;1.90;;
29466;SDS011;60968;37.490;-122.288;2022-08-25T02:59:20;3.70;;;1.60;;
29466;SDS011;60968;37.490;-122.288;2022-08-25T03:02:21;3.90;;;1.53;;
29466;SDS011;60968;37.490;-122.288;2022-08-25T03:05:21;3.60;;;1.90;;
29466;SDS011;60968;37.490;-122.288;2022-08-25T03:08:22;3.80;;;1.60;;
29466;SDS011;60968;37.490;-122.288;2022-08-25T03:11:23;5.57;;;1.70;;
29466;SDS011;60968;37.490;-122.288;2022-08-25T03:14:25;3.07;;;1.80;;
29466;SDS011;60968;37.490;-122.288;2022-08-25T03:17:26;3.47;;;2.00;;
29466;SDS011;60968;37.490;-122.288;2022-08-25T03:20:30;4.40;;;2.00;;
29466;SDS011;60968;37.490;-122.288;2022-08-25T03:23:31;2.03;;;1.63;;
29466;SDS011;60968;37.490;-122.288;2022-08-25T03:26:32;4.77;;;1.67;;
29466;SDS011;60968;37.490;-122.288;2022-08-25T03:29:33;4.57;;;2.03;;
29466;SDS011;60968;37.490;-122.288;2022-08-25T03:32:34;4.33;;;2.13;;
29466;SDS011;60968;37.490;-122.288;2022-08-25T03:35:35;2.90;;;1.97;;
29466;SDS011;60968;37.490;-122.288;2022-08-25T03:38:36;2.50;;;1.87;;
29466;SDS011;60968;37.490;-122.288;2022-08-25T03:41:37;2.13;;;1.50;;
29466;SDS011;60968;37.490;-122.288;2022-08-25T03:44:39;2.03;;;1.57;;
29466;SDS011;60968;37.490;-122.288;2022-08-25T03:47:44;5.20;;;2.17;;
29466;SDS011;60968;37.490;-122.288;2022-08-25T03:50:49;3.47;;;2.13;;
29466;SDS011;60968;37.490;-122.288;2022-08-25T03:53:51;2.37;;;1.77;;
29466;SDS011;60968;37.490;-122.288;2022-08-25T03:56:53;5.40;;;2.00;;
29466;SDS011;60968;37.490;-122.288;2022-08-25T03:59:54;3.30;;;2.00;;
29466;SDS011;60968;37.490;-122.288;2022-08-25T04:02:58;3.43;;;2.10;;
29466;SDS011;60968;37.490;-122.288;2022-08-25T04:05:59;2.97;;;1.70;;
29466;SDS011;60968;37.490;-122.288;2022-08-25T04:09:01;5.60;;;1.90;;
29466;SDS011;60968;37.490;-122.288;2022-08-25T04:12:02;4.23;;;2.20;;
29466;SDS011;60968;37.490;-122.288;2022-08-25T04:15:05;3.73;;;2.00;;
29466;SDS011;60968;37.490;-122.288;2022-08-25T04:18:06;2.33;;;1.93;;
29466;SDS011;60968;37.490;-122.288;2022-08-25T04:21:09;4.83;;;1.70;;
29466;SDS011;60968;37.490;-122.288;2022-08-25T04:24:11;2.07;;;1.67;;
29466;SDS011;60968;37.490;-122.288;2022-08-25T04:27:12;4.37;;;2.23;;
29466;SDS011;60968;37.490;-122.288;2022-08-25T04:30:14;3.57;;;1.87;;
29466;SDS011;60968;37.490;-122.288;2022-08-25T04:33:15;8.03;;;1.90;;
29466;SDS011;60968;37.490;-122.288;2022-08-25T04:36:17;5.90;;;2.80;;
29466;SDS011;60968;37.490;-122.288;2022-08-25T04:39:20;3.67;;;2.50;;
29466;SDS011;60968;37.490;-122.288;2022-08-25T04:42:21;5.63;;;1.83;;
29466;SDS011;60968;37.490;-122.288;2022-08-25T04:45:22;2.47;;;1.87;;
29466;SDS011;60968;37.490;-122.288;2022-08-25T04:48:23;4.70;;;2.10;;
29466;SDS011;60968;37.490;-122.288;2022-08-25T04:51:33;3.00;;;1.93;;
29466;SDS011;60968;37.490;-122.288;2022-08-25T04:54:37;2.80;;;1.80;;
29466;SDS011;60968;37.490;-122.288;2022-08-25T04:57:39;5.77;;;2.10;;
29466;SDS011;60968;37.490;-122.288;2022-08-25T05:00:40;6.97;;;2.17;;
29466;SDS011;60968;37.490;-122.288;2022-08-25T05:03:42;6.23;;;2.20;;
29466;SDS011;60968;37.490;-122.288;2022-08-25T05:06:44;4.87;;;2.40;;
29466;SDS011;60968;37.490;-122.288;2022-08-25T05:09:46;4.03;;;2.23;;
29466;SDS011;60968;37.490;-122.288;2022-08-25T05:12:47;4.63;;;2.17;;
29466;SDS011;60968;37.490;-122.288;2022-08-25T05:15:51;6.93;;;2.27;;
29466;SDS011;60968;37.490;-122.288;2022-08-25T05:18:54;8.13;;;2.63;;
29466;SDS011;60968;37.490;-122.288;2022-08-25T05:21:55;4.53;;;2.20;;
29466;SDS011;60968;37.490;-122.288;2022-08-25T05:24:57;8.17;;;1.90;;
29466;SDS011;60968;37.490;-122.288;2022-08-25T05:27:58;3.90;;;1.70;;
29466;SDS011;60968;37.490;-122.288;2022-08-25T05:30:59;4.50;;;2.20;;
29466;SDS011;60968;37.490;-122.288;2022-08-25T05:34:06;4.50;;;1.70;;
29466;SDS011;60968;37.490;-122.288;2022-08-25T05:37:07;2.40;;;1.63;;
29466;SDS011;60968;37.490;-122.288;2022-08-25T05:40:08;6.40;;;2.10;;
29466;SDS011;60968;37.490;-122.288;2022-08-25T05:43:10;4.97;;;2.10;;
29466;SDS011;60968;37.490;-122.288;2022-08-25T05:46:11;3.67;;;2.10;;
29466;SDS011;60968;37.490;-122.288;2022-08-25T05:49:14;7.07;;;2.10;;
29466;SDS011;60968;37.490;-122.288;2022-08-25T05:52:16;6.07;;;2.07;;
29466;SDS011;60968;37.490;-122.288;2022-08-25T05:55:17;4.43;;;2.33;;
29466;SDS011;60968;37.490;-122.288;2022-08-25T05:58:18;3.17;;;2.10;;
29466;SDS011;60968;37.490;-122.288;2022-08-25T06:01:24;3.47;;;2.07;;
29466;SDS011;60968;37.490;-122.288;2022-08-25T06:04:27;4.90;;;1.93;;
29466;SDS011;60968;37.490;-122.288;2022-08-25T06:07:28;4.47;;;2.10;;
29466;SDS011;60968;37.490;-122.288;2022-08-25T06:10:29;3.20;;;1.90;;
29466;SDS011;60968;37.490;-122.288;2022-08-25T06:13:30;4.50;;;2.27;;
29466;SDS011;60968;37.490;-122.288;2022-08-25T06:16:30;3.97;;;2.07;;
29466;SDS011;60968;37.490;-122.288;2022-08-25T06:19:31;4.17;;;2.37;;
29466;SDS011;60968;37.490;-122.288;2022-08-25T06:22:32;4.40;;;1.93;;
29466;SDS011;60968;37.490;-122.288;2022-08-25T06:25:33;4.37;;;2.17;;
29466;SDS011;60968;37.490;-122.288;2022-08-25T06:28:34;5.77;;;2.43;;
29466;SDS011;60968;37.490;-122.288;2022-08-25T06:31:35;5.73;;;2.47;;
29466;SDS011;60968;37.490;-122.288;2022-08-25T06:34:37;6.97;;;4.37;;
29466;SDS011;60968;37.490;-122.288;2022-08-25T06:37:39;10.03;;;4.00;;
29466;SDS011;60968;37.490;-122.288;2022-08-25T06:40:40;6.07;;;2.80;;
29466;SDS011;60968;37.490;-122.288;2022-08-25T06:43:41;4.67;;;2.80;;
29466;SDS011;60968;37.490;-122.288;2022-08-25T06:46:42;6.00;;;2.80;;
29466;SDS011;60968;37.490;-122.288;2022-08-25T06:49:43;4.63;;;3.27;;
29466;SDS011;60968;37.490;-122.288;2022-08-25T06:52:45;6.60;;;3.10;;
29466;SDS011;60968;37.490;-122.288;2022-08-25T06:55:54;5.63;;;3.50;;
29466;SDS011;60968;37.490;-122.288;2022-08-25T06:58:56;7.53;;;3.93;;
29466;SDS011;60968;37.490;-122.288;2022-08-25T07:01:56;9.23;;;3.83;;
29466;SDS011;60968;37.490;-122.288;2022-08-25T07:04:57;7.50;;;4.63;;
29466;SDS011;60968;37.490;-122.288;2022-08-25T07:07:58;8.07;;;4.33;;
29466;SDS011;60968;37.490;-122.288;2022-08-25T07:11:05;8.70;;;4.83;;
29466;SDS011;60968;37.490;-122.288;2022-08-25T07:14:07;7.43;;;4.77;;
29466;SDS011;60968;37.490;-122.288;2022-08-25T07:17:09;6.73;;;4.90;;
29466;SDS011;60968;37.490;-122.288;2022-08-25T07:20:11;12.03;;;5.50;;
29466;SDS011;60968;37.490;-122.288;2022-08-25T07:23:12;10.10;;;5.67;;
29466;SDS011;60968;37.490;-122.288;2022-08-25T07:26:17;8.40;;;5.40;;
29466;SDS011;60968;37.490;-122.288;2022-08-25T07:29:24;7.47;;;4.47;;
29466;SDS011;60968;37.490;-122.288;2022-08-25T07:32:26;3.57;;;2.90;;
29466;SDS011;60968;37.490;-122.288;2022-08-25T07:35:27;5.40;;;3.20;;
29466;SDS011;60968;37.490;-122.288;2022-08-25T07:38:28;5.67;;;3.40;;
29466;SDS011;60968;37.490;-122.288;2022-08-25T07:41:29;6.87;;;2.87;;
29466;SDS011;60968;37.490;-122.288;2022-08-25T07:44:32;8.20;;;3.30;;
29466;SDS011;60968;37.490;-122.288;2022-08-25T07:47:32;4.97;;;3.23;;
29466;SDS011;60968;37.490;-122.288;2022-08-25T07:50:36;6.00;;;3.83;;
29466;SDS011;60968;37.490;-122.288;2022-08-25T07:53:38;8.90;;;3.80;;
29466;SDS011;60968;37.490;-122.288;2022-08-25T07:56:39;5.77;;;3.63;;
29466;SDS011;60968;37.490;-122.288;2022-08-25T07:59:42;5.40;;;3.07;;
29466;SDS011;60968;37.490;-122.288;2022-08-25T08:02:43;11.67;;;4.90;;
29466;SDS011;60968;37.490;-122.288;2022-08-25T08:05:47;7.63;;;4.33;;
29466;SDS011;60968;37.490;-122.288;2022-08-25T08:08:49;9.30;;;4.30;;
29466;SDS011;60968;37.490;-122.288;2022-08-25T08:11:51;12.87;;;4.47;;
29466;SDS011;60968;37.490;-122.288;2022-08-25T08:14:53;7.70;;;4.17;;
29466;SDS011;60968;37.490;-122.288;2022-08-25T08:17:54;6.27;;;4.23;;
29466;SDS011;60968;37.490;-122.288;2022-08-25T08:20:56;6.13;;;3.43;;
29466;SDS011;60968;37.490;-122.288;2022-08-25T08:23:59;5.13;;;2.67;;
29466;SDS011;60968;37.490;-122.288;2022-08-25T08:27:02;5.00;;;2.90;;
29466;SDS011;60968;37.490;-122.288;2022-08-25T08:30:03;6.27;;;2.63;;
29466;SDS011;60968;37.490;-122.288;2022-08-25T08:33:05;4.23;;;2.60;;
29466;SDS011;60968;37.490;-122.288;2022-08-25T08:36:08;3.87;;;2.50;;
29466;SDS011;60968;37.490;-122.288;2022-08-25T08:39:10;3.23;;;1.90;;
29466;SDS011;60968;37.490;-122.288;2022-08-25T08:45:42;6.50;;;2.23;;
29466;SDS011;60968;37.490;-122.288;2022-08-25T08:52:00;2.43;;;1.37;;
29466;SDS011;60968;37.490;-122.288;2022-08-25T08:55:03;3.93;;;1.60;;
29466;SDS011;60968;37.490;-122.288;2022-08-25T08:58:24;1.70;;;1.20;;
29466;SDS011;60968;37.490;-122.288;2022-08-25T09:05:00;6.17;;;2.13;;
29466;SDS011;60968;37.490;-122.288;2022-08-25T09:08:06;5.07;;;2.20;;
29466;SDS011;60968;37.490;-122.288;2022-08-25T09:21:07;6.87;;;4.60;;
29466;SDS011;60968;37.490;-122.288;2022-08-25T09:27:35;5.87;;;3.57;;
29466;SDS011;60968;37.490;-122.288;2022-08-25T09:34:00;5.00;;;3.30;;
29466;SDS011;60968;37.490;-122.288;2022-08-25T09:37:03;5.40;;;2.70;;
29466;SDS011;60968;37.490;-122.288;2022-08-25T09:40:03;3.50;;;2.20;;
29466;SDS011;60968;37.490;-122.288;2022-08-25T09:43:16;3.63;;;2.00;;
29466;SDS011;60968;37.490;-122.288;2022-08-25T09:46:24;3.43;;;2.13;;
29466;SDS011;60968;37.490;-122.288;2022-08-25T09:49:34;6.37;;;3.53;;
29466;SDS011;60968;37.490;-122.288;2022-08-25T09:52:38;9.00;;;3.67;;
29466;SDS011;60968;37.490;-122.288;2022-08-25T09:55:42;5.67;;;2.93;;
29466;SDS011;60968;37.490;-122.288;2022-08-25T09:58:45;5.87;;;3.13;;
29466;SDS011;60968;37.490;-122.288;2022-08-25T10:01:48;6.87;;;2.80;;
29466;SDS011;60968;37.490;-122.288;2022-08-25T10:04:51;3.73;;;2.10;;
29466;SDS011;60968;37.490;-122.288;2022-08-25T10:07:57;3.47;;;2.03;;
29466;SDS011;60968;37.490;-122.288;2022-08-25T10:11:00;4.03;;;2.07;;
29466;SDS011;60968;37.490;-122.288;2022-08-25T10:14:48;5.20;;;2.57;;
29466;SDS011;60968;37.490;-122.288;2022-08-25T10:20:33;5.87;;;3.17;;
29466;SDS011;60968;37.490;-122.288;2022-08-25T10:23:35;3.80;;;2.57;;
29466;SDS011;60968;37.490;-122.288;2022-08-25T10:26:53;6.80;;;2.87;;
29466;SDS011;60968;37.490;-122.288;2022-08-25T10:46:40;5.67;;;3.10;;
29466;SDS011;60968;37.490;-122.288;2022-08-25T10:49:47;6.50;;;2.90;;
29466;SDS011;60968;37.490;-122.288;2022-08-25T10:53:01;4.43;;;2.60;;
29466;SDS011;60968;37.490;-122.288;2022-08-25T10:59:48;6.47;;;3.67;;
29466;SDS011;60968;37.490;-122.288;2022-08-25T11:03:04;9.97;;;3.10;;
29466;SDS011;60968;37.490;-122.288;2022-08-25T11:06:24;3.73;;;2.13;;
29466;SDS011;60968;37.490;-122.288;2022-08-25T11:09:39;3.40;;;1.90;;
29466;SDS011;60968;37.490;-122.288;2022-08-25T11:12:44;3.40;;;2.23;;
29466;SDS011;60968;37.490;-122.288;2022-08-25T11:15:53;4.23;;;2.30;;
29466;SDS011;60968;37.490;-122.288;2022-08-25T11:19:08;3.80;;;2.40;;
29466;SDS011;60968;37.490;-122.288;2022-08-25T11:22:35;4.43;;;1.93;;
29466;SDS011;60968;37.490;-122.288;2022-08-25T11:25:45;3.70;;;2.20;;
29466;SDS011;60968;37.490;-122.288;2022-08-25T11:32:17;4.77;;;1.87;;
29466;SDS011;60968;37.490;-122.288;2022-08-25T11:35:27;2.77;;;1.80;;
29466;SDS011;60968;37.490;-122.288;2022-08-25T11:42:26;3.20;;;2.00;;
29466;SDS011;60968;37.490;-122.288;2022-08-25T11:48:57;6.07;;;2.77;;
29466;SDS011;60968;37.490;-122.288;2022-08-25T11:52:08;3.97;;;2.57;;
29466;SDS011;60968;37.490;-122.288;2022-08-25T11:58:53;14.73;;;4.57;;
29466;SDS011;60968;37.490;-122.288;2022-08-25T12:04:55;8.80;;;3.80;;
29466;SDS011;60968;37.490;-122.288;2022-08-25T12:08:02;6.47;;;3.10;;
29466;SDS011;60968;37.490;-122.288;2022-08-25T12:11:05;7.23;;;3.33;;
29466;SDS011;60968;37.490;-122.288;2022-08-25T12:14:09;5.43;;;2.90;;
29466;SDS011;60968;37.490;-122.288;2022-08-25T12:17:19;4.30;;;2.37;;
29466;SDS011;60968;37.490;-122.288;2022-08-25T12:21:10;4.23;;;2.70;;
29466;SDS011;60968;37.490;-122.288;2022-08-25T12:24:10;5.17;;;2.47;;
29466;SDS011;60968;37.490;-122.288;2022-08-25T12:30:44;7.63;;;4.80;;
29466;SDS011;60968;37.490;-122.288;2022-08-25T12:34:07;14.93;;;5.50;;
29466;SDS011;60968;37.490;-122.288;2022-08-25T12:37:18;9.93;;;5.27;;
29466;SDS011;60968;37.490;-122.288;2022-08-25T12:43:44;10.20;;;4.97;;
29466;SDS011;60968;37.490;-122.288;2022-08-25T12:46:51;8.03;;;4.63;;
29466;SDS011;60968;37.490;-122.288;2022-08-25T12:53:45;7.20;;;3.20;;
29466;SDS011;60968;37.490;-122.288;2022-08-25T12:57:21;4.40;;;2.80;;
29466;SDS011;60968;37.490;-122.288;2022-08-25T13:00:46;8.67;;;4.43;;
29466;SDS011;60968;37.490;-122.288;2022-08-25T13:03:59;6.20;;;3.47;;
29466;SDS011;60968;37.490;-122.288;2022-08-25T13:10:49;8.53;;;4.37;;
29466;SDS011;60968;37.490;-122.288;2022-08-25T13:16:53;13.33;;;5.30;;
29466;SDS011;60968;37.490;-122.288;2022-08-25T13:23:23;8.13;;;4.57;;
29466;SDS011;60968;37.490;-122.288;2022-08-25T13:26:31;6.23;;;3.53;;
29466;SDS011;60968;37.490;-122.288;2022-08-25T13:29:48;7.20;;;4.40;;
29466;SDS011;60968;37.490;-122.288;2022-08-25T13:32:55;9.10;;;3.70;;
29466;SDS011;60968;37.490;-122.288;2022-08-25T13:36:00;11.43;;;5.10;;
29466;SDS011;60968;37.490;-122.288;2022-08-25T13:42:32;10.53;;;5.20;;
29466;SDS011;60968;37.490;-122.288;2022-08-25T13:45:37;8.50;;;4.97;;
29466;SDS011;60968;37.490;-122.288;2022-08-25T13:48:46;10.00;;;4.83;;
29466;SDS011;60968;37.490;-122.288;2022-08-25T13:51:51;10.23;;;5.03;;
29466;SDS011;60968;37.490;-122.288;2022-08-25T13:54:57;7.27;;;4.87;;
29466;SDS011;60968;37.490;-122.288;2022-08-25T13:57:59;8.33;;;4.57;;
29466;SDS011;60968;37.490;-122.288;2022-08-25T14:08:03;14.33;;;5.73;;
29466;SDS011;60968;37.490;-122.288;2022-08-25T14:14:28;7.60;;;4.90;;
29466;SDS011;60968;37.490;-122.288;2022-08-25T14:17:32;9.83;;;5.10;;
29466;SDS011;60968;37.490;-122.288;2022-08-25T14:20:35;8.10;;;5.90;;
29466;SDS011;60968;37.490;-122.288;2022-08-25T14:23:41;9.37;;;4.90;;
29466;SDS011;60968;37.490;-122.288;2022-08-25T14:26:43;10.70;;;6.13;;
29466;SDS011;60968;37.490;-122.288;2022-08-25T14:29:43;6.93;;;5.03;;
29466;SDS011;60968;37.490;-122.288;2022-08-25T14:32:44;9.47;;;6.50;;
29466;SDS011;60968;37.490;-122.288;2022-08-25T14:35:46;8.60;;;5.57;;
29466;SDS011;60968;37.490;-122.288;2022-08-25T14:38:49;10.43;;;4.83;;
29466;SDS011;60968;37.490;-122.288;2022-08-25T14:41:51;12.93;;;6.17;;
29466;SDS011;60968;37.490;-122.288;2022-08-25T14:44:52;7.83;;;5.33;;
29466;SDS011;60968;37.490;-122.288;2022-08-25T14:47:53;8.33;;;4.60;;
29466;SDS011;60968;37.490;-122.288;2022-08-25T14:50:57;8.97;;;5.50;;
29466;SDS011;60968;37.490;-122.288;2022-08-25T14:54:01;9.50;;;5.70;;
29466;SDS011;60968;37.490;-122.288;2022-08-25T14:57:04;5.77;;;4.53;;
29466;SDS011;60968;37.490;-122.288;2022-08-25T15:00:06;7.00;;;4.37;;
29466;SDS011;60968;37.490;-122.288;2022-08-25T15:03:11;6.40;;;4.13;;
29466;SDS011;60968;37.490;-122.288;2022-08-25T15:06:15;6.30;;;4.43;;
29466;SDS011;60968;37.490;-122.288;2022-08-25T15:09:18;9.15;;;3.80;;
29466;SDS011;60968;37.490;-122.288;2022-08-25T15:12:18;5.90;;;4.10;;
29466;SDS011;60968;37.490;-122.288;2022-08-25T15:15:19;4.93;;;3.58;;
29466;SDS011;60968;37.490;-122.288;2022-08-25T15:18:20;6.50;;;4.13;;
29466;SDS011;60968;37.490;-122.288;2022-08-25T15:21:22;8.23;;;4.72;;
29466;SDS011;60968;37.490;-122.288;2022-08-25T15:24:23;5.13;;;3.85;;
29466;SDS011;60968;37.490;-122.288;2022-08-25T15:27:25;6.00;;;3.80;;
29466;SDS011;60968;37.490;-122.288;2022-08-25T15:30:27;5.15;;;3.67;;
29466;SDS011;60968;37.490;-122.288;2022-08-25T15:33:28;7.13;;;3.75;;
29466;SDS011;60968;37.490;-122.288;2022-08-25T15:36:32;7.57;;;4.25;;
29466;SDS011;60968;37.490;-122.288;2022-08-25T15:39:35;4.63;;;3.88;;
29466;SDS011;60968;37.490;-122.288;2022-08-25T15:42:36;7.03;;;4.32;;
29466;SDS011;60968;37.490;-122.288;2022-08-25T15:45:37;5.45;;;4.60;;
29466;SDS011;60968;37.490;-122.288;2022-08-25T15:48:38;5.03;;;4.53;;
29466;SDS011;60968;37.490;-122.288;2022-08-25T15:51:39;8.40;;;4.80;;
29466;SDS011;60968;37.490;-122.288;2022-08-25T15:54:40;7.53;;;4.65;;
29466;SDS011;60968;37.490;-122.288;2022-08-25T15:57:44;5.78;;;4.78;;
29466;SDS011;60968;37.490;-122.288;2022-08-25T16:00:45;4.65;;;4.25;;
29466;SDS011;60968;37.490;-122.288;2022-08-25T16:03:49;2.90;;;2.70;;
29466;SDS011;60968;37.490;-122.288;2022-08-25T16:06:51;3.92;;;3.55;;
29466;SDS011;60968;37.490;-122.288;2022-08-25T16:09:54;3.05;;;2.85;;
29466;SDS011;60968;37.490;-122.288;2022-08-25T16:12:56;2.90;;;2.70;;
29466;SDS011;60968;37.490;-122.288;2022-08-25T16:15:57;3.30;;;3.00;;
29466;SDS011;60968;37.490;-122.288;2022-08-25T16:18:58;3.92;;;3.53;;
29466;SDS011;60968;37.490;-122.288;2022-08-25T16:21:59;5.60;;;4.13;;
29466;SDS011;60968;37.490;-122.288;2022-08-25T16:25:00;7.32;;;3.53;;
29466;SDS011;60968;37.490;-122.288;2022-08-25T16:28:01;3.78;;;3.00;;
29466;SDS011;60968;37.490;-122.288;2022-08-25T16:31:02;3.90;;;2.80;;
29466;SDS011;60968;37.490;-122.288;2022-08-25T16:34:04;5.63;;;2.80;;
29466;SDS011;60968;37.490;-122.288;2022-08-25T16:37:05;4.47;;;2.67;;
29466;SDS011;60968;37.490;-122.288;2022-08-25T16:40:06;3.05;;;2.60;;
29466;SDS011;60968;37.490;-122.288;2022-08-25T16:43:08;2.90;;;2.30;;
29466;SDS011;60968;37.490;-122.288;2022-08-25T16:46:10;3.63;;;2.30;;
29466;SDS011;60968;37.490;-122.288;2022-08-25T16:49:13;8.37;;;2.70;;
29466;SDS011;60968;37.490;-122.288;2022-08-25T16:52:15;3.73;;;2.67;;
29466;SDS011;60968;37.490;-122.288;2022-08-25T16:55:16;4.57;;;2.40;;
29466;SDS011;60968;37.490;-122.288;2022-08-25T16:58:17;5.03;;;2.80;;
29466;SDS011;60968;37.490;-122.288;2022-08-25T17:01:17;5.00;;;2.23;;
29466;SDS011;60968;37.490;-122.288;2022-08-25T17:04:20;5.90;;;2.53;;
29466;SDS011;60968;37.490;-122.288;2022-08-25T17:07:21;5.53;;;2.50;;
29466;SDS011;60968;37.490;-122.288;2022-08-25T17:10:22;5.90;;;2.67;;
29466;SDS011;60968;37.490;-122.288;2022-08-25T17:13:23;5.77;;;2.50;;
29466;SDS011;60968;37.490;-122.288;2022-08-25T17:16:26;6.07;;;2.60;;
29466;SDS011;60968;37.490;-122.288;2022-08-25T17:19:28;3.25;;;2.38;;
29466;SDS011;60968;37.490;-122.288;2022-08-25T17:22:30;4.82;;;2.72;;
29466;SDS011;60968;37.490;-122.288;2022-08-25T17:25:34;4.95;;;3.10;;
29466;SDS011;60968;37.490;-122.288;2022-08-25T17:28:36;7.20;;;3.67;;
29466;SDS011;60968;37.490;-122.288;2022-08-25T17:31:37;6.22;;;3.80;;
29466;SDS011;60968;37.490;-122.288;2022-08-25T17:34:38;4.20;;;3.83;;
29466;SDS011;60968;37.490;-122.288;2022-08-25T17:37:40;7.18;;;4.30;;
29466;SDS011;60968;37.490;-122.288;2022-08-25T17:40:42;5.57;;;4.38;;
29466;SDS011;60968;37.490;-122.288;2022-08-25T17:43:43;6.93;;;4.70;;
29466;SDS011;60968;37.490;-122.288;2022-08-25T17:46:45;7.70;;;5.15;;
29466;SDS011;60968;37.490;-122.288;2022-08-25T17:49:46;5.70;;;5.30;;
29466;SDS011;60968;37.490;-122.288;2022-08-25T17:52:47;6.00;;;5.07;;
29466;SDS011;60968;37.490;-122.288;2022-08-25T17:55:54;8.73;;;5.35;;
29466;SDS011;60968;37.490;-122.288;2022-08-25T17:59:01;4.55;;;4.13;;
29466;SDS011;60968;37.490;-122.288;2022-08-25T18:02:03;4.25;;;3.85;;
29466;SDS011;60968;37.490;-122.288;2022-08-25T18:05:05;3.80;;;3.40;;
29466;SDS011;60968;37.490;-122.288;2022-08-25T18:08:06;3.13;;;2.92;;
29466;SDS011;60968;37.490;-122.288;2022-08-25T18:11:08;3.00;;;2.80;;
29466;SDS011;60968;37.490;-122.288;2022-08-25T18:14:09;2.65;;;2.38;;
29466;SDS011;60968;37.490;-122.288;2022-08-25T18:17:10;2.42;;;1.75;;
29466;SDS011;60968;37.490;-122.288;2022-08-25T18:20:12;2.83;;;1.40;;
29466;SDS011;60968;37.490;-122.288;2022-08-25T18:23:14;6.18;;;1.50;;
29466;SDS011;60968;37.490;-122.288;2022-08-25T18:26:15;3.50;;;1.23;;
29466;SDS011;60968;37.490;-122.288;2022-08-25T18:29:17;3.22;;;1.35;;
29466;SDS011;60968;37.490;-122.288;2022-08-25T18:32:19;1.77;;;1.10;;
29466;SDS011;60968;37.490;-122.288;2022-08-25T18:35:19;2.38;;;1.10;;
29466;SDS011;60968;37.490;-122.288;2022-08-25T18:38:20;2.88;;;0.93;;
29466;SDS011;60968;37.490;-122.288;2022-08-25T18:41:22;2.83;;;1.08;;
29466;SDS011;60968;37.490;-122.288;2022-08-25T18:44:23;1.73;;;0.98;;
29466;SDS011;60968;37.490;-122.288;2022-08-25T18:47:24;4.10;;;1.40;;
29466;SDS011;60968;37.490;-122.288;2022-08-25T18:50:26;4.18;;;1.83;;
29466;SDS011;60968;37.490;-122.288;2022-08-25T18:53:30;4.53;;;1.07;;
29466;SDS011;60968;37.490;-122.288;2022-08-25T18:56:32;1.70;;;1.10;;
29466;SDS011;60968;37.490;-122.288;2022-08-25T18:59:36;2.90;;;1.17;;
29466;SDS011;60968;37.490;-122.288;2022-08-25T19:02:37;2.65;;;1.48;;
29466;SDS011;60968;37.490;-122.288;2022-08-25T19:05:40;4.00;;;1.40;;
29466;SDS011;60968;37.490;-122.288;2022-08-25T19:08:45;2.85;;;1.35;;
29466;SDS011;60968;37.490;-122.288;2022-08-25T19:11:46;4.10;;;1.02;;
29466;SDS011;60968;37.490;-122.288;2022-08-25T19:14:47;2.63;;;1.00;;
29466;SDS011;60968;37.490;-122.288;2022-08-25T19:17:48;1.87;;;0.90;;
29466;SDS011;60968;37.490;-122.288;2022-08-25T19:20:49;3.20;;;1.00;;
29466;SDS011;60968;37.490;-122.288;2022-08-25T19:23:50;1.50;;;0.83;;
29466;SDS011;60968;37.490;-122.288;2022-08-25T19:26:52;2.47;;;1.10;;